Time;durP1;ratioP1;P1;durP2;ratioP2;P2;SDS_P1;SDS_P2;PMS_P1;PMS_P2;Temp;Humidity;BMP_temperature;BMP_pressure;BME280_temperature;BME280_humidity;BME280_pressure;Samples;Min_cycle;Max_cycle;Signal;HPM_P1;HPM_P2
2022/08/17 00:00:36;;;;;;;491.08;45.17;;;18.30;99.90;;;;;;5023764;28;20037;-86
2022/08/17 00:03:08;;;;;;;34.83;28.48;;;18.30;99.90;;;;;;4993109;28;20440;-86
2022/08/17 00:06:01;;;;;;;34.65;28.60;;;18.20;99.90;;;;;;5023002;28;20044;-86
2022/08/17 00:08:36;;;;;;;36.55;24.20;;;18.40;99.90;;;;;;4991912;28;20056;-86
2022/08/17 00:11:05;;;;;;;28.13;24.67;;;18.30;99.90;;;;;;5013983;28;20117;-86
2022/08/17 00:13:35;;;;;;;21.30;18.67;;;18.40;99.90;;;;;;5006061;28;20548;-85
2022/08/17 00:16:05;;;;;;;42.75;29.27;;;18.20;99.90;;;;;;5039701;28;20042;-86
2022/08/17 00:18:32;;;;;;;48.17;33.13;;;18.30;99.90;;;;;;5010056;28;20048;-85
2022/08/17 00:20:59;;;;;;;38.80;25.98;;;18.20;99.90;;;;;;5014535;28;20037;-85
2022/08/17 00:23:25;;;;;;;34.58;29.65;;;18.30;99.90;;;;;;5034556;28;20067;-86
2022/08/17 00:25:52;;;;;;;38.45;31.05;;;18.30;99.90;;;;;;5009785;28;20033;-86
2022/08/17 00:28:18;;;;;;;46.75;34.13;;;18.40;99.90;;;;;;5031449;28;20057;-85
2022/08/17 00:30:48;;;;;;;44.97;35.65;;;18.40;99.90;;;;;;5025167;28;20804;-86
2022/08/17 00:33:18;;;;;;;44.05;34.90;;;18.40;99.90;;;;;;5034841;28;20512;-86
2022/08/17 00:35:45;;;;;;;48.88;36.30;;;18.50;99.90;;;;;;5029852;28;20057;-85
2022/08/17 00:38:11;;;;;;;45.97;36.17;;;18.50;99.90;;;;;;5013916;28;20608;-86
2022/08/17 00:40:44;;;;;;;30.33;25.88;;;18.60;99.90;;;;;;4995377;28;20037;-86
2022/08/17 00:43:17;;;;;;;33.95;27.50;;;18.50;99.90;;;;;;5010537;28;20582;-86
2022/08/17 00:45:44;;;;;;;42.80;32.60;;;18.40;99.90;;;;;;4990690;28;20350;-86
2022/08/17 00:48:11;;;;;;;37.20;30.45;;;18.50;99.90;;;;;;5016960;28;20092;-86
2022/08/17 00:50:40;;;;;;;43.42;36.53;;;18.40;99.90;;;;;;5026948;28;20042;-87
2022/08/17 00:53:06;;;;;;;51.47;36.65;;;18.50;99.90;;;;;;5024605;28;20113;-86
2022/08/17 00:55:32;;;;;;;40.67;33.95;;;18.50;99.90;;;;;;5007213;28;20041;-85
2022/08/17 00:58:00;;;;;;;45.78;35.47;;;18.40;99.90;;;;;;5034776;28;20037;-86
2022/08/17 01:00:31;;;;;;;43.75;31.40;;;18.40;99.90;;;;;;5010045;28;20383;-84
2022/08/17 01:03:05;;;;;;;33.78;27.33;;;18.40;99.90;;;;;;5044643;28;20609;-86
2022/08/17 01:05:33;;;;;;;51.63;36.33;;;18.20;99.90;;;;;;5009588;28;20045;-85
2022/08/17 01:08:01;;;;;;;26.77;22.55;;;18.20;99.90;;;;;;5015828;28;20033;-86
2022/08/17 01:10:36;;;;;;;32.53;28.52;;;18.10;99.90;;;;;;4987938;28;20215;-86
2022/08/17 01:13:03;;;;;;;35.78;31.15;;;18.10;98.30;;;;;;5027633;28;20044;-86
2022/08/17 01:15:33;;;;;;;48.17;34.10;;;18.20;99.90;;;;;;5011465;28;20390;-85
2022/08/17 01:17:59;;;;;;;35.28;29.83;;;18.20;76.90;;;;;;4996847;28;20111;-86
2022/08/17 01:20:25;;;;;;;36.72;30.10;;;18.20;99.90;;;;;;5004148;28;20508;-84
2022/08/17 01:22:52;;;;;;;43.97;33.40;;;18.00;99.90;;;;;;5040647;28;20076;-86
2022/08/17 01:25:19;;;;;;;120.22;42.38;;;18.10;99.90;;;;;;4992334;28;20042;-85
2022/08/17 01:27:45;;;;;;;47.75;37.13;;;18.20;99.90;;;;;;5027218;28;20121;-86
2022/08/17 01:30:12;;;;;;;28.05;24.38;;;18.10;99.90;;;;;;5031445;28;20399;-85
2022/08/17 01:32:38;;;;;;;32.80;23.75;;;18.00;99.90;;;;;;5016864;28;20125;-85
2022/08/17 01:35:05;;;;;;;38.58;29.02;;;17.80;1.00;;;;;;5010108;28;20081;-85
2022/08/17 01:37:37;;;;;;;37.72;28.45;;;17.90;13.20;;;;;;5030038;28;20045;-85
2022/08/17 01:40:12;;;;;;;43.92;22.20;;;17.90;22.60;;;;;;5024281;28;20041;-85
2022/08/17 01:42:50;;;;;;;646.83;44.88;;;17.70;99.90;;;;;;5026015;28;20052;-85
2022/08/17 01:45:23;;;;;;;209.88;24.88;;;17.70;1.00;;;;;;4987639;28;20066;-85
2022/08/17 01:47:49;;;;;;;214.63;28.02;;;17.70;99.90;;;;;;4994783;28;20454;-85
2022/08/17 01:50:22;;;;;;;215.73;26.55;;;17.60;99.90;;;;;;5008001;28;20076;-86
2022/08/17 01:52:52;;;;;;;69.47;24.20;;;17.60;99.90;;;;;;5028683;28;20034;-85
2022/08/17 01:55:23;;;;;;;137.73;28.95;;;17.70;99.90;;;;;;5002381;28;20073;-86
2022/08/17 01:57:49;;;;;;;71.15;28.80;;;17.70;99.90;;;;;;5005283;28;20386;-85
2022/08/17 02:00:14;;;;;;;256.20;34.45;;;17.80;99.90;;;;;;5025383;28;20122;-85
2022/08/17 02:02:40;;;;;;;57.50;27.92;;;17.80;99.90;;;;;;5017080;28;20058;-86
2022/08/17 02:05:07;;;;;;;35.97;26.80;;;17.80;99.90;;;;;;4996135;28;20037;-85
2022/08/17 02:07:35;;;;;;;60.67;29.52;;;17.80;99.90;;;;;;5000530;28;20390;-86
2022/08/17 02:10:05;;;;;;;37.88;28.10;;;17.80;99.90;;;;;;5005266;28;20076;-85
2022/08/17 02:12:31;;;;;;;31.92;27.83;;;17.70;99.90;;;;;;4989727;28;20171;-85
2022/08/17 02:14:56;;;;;;;44.78;32.58;;;17.80;99.90;;;;;;4992045;28;20157;-86
2022/08/17 02:17:22;;;;;;;119.22;33.72;;;17.80;99.90;;;;;;5004564;28;20046;-84
2022/08/17 02:19:47;;;;;;;112.20;34.60;;;17.80;99.90;;;;;;4990162;28;20041;-86
2022/08/17 02:22:17;;;;;;;117.18;30.45;;;17.80;91.50;;;;;;5020233;28;20105;-86
2022/08/17 02:24:43;;;;;;;76.07;28.10;;;17.80;99.90;;;;;;5027958;28;20042;-86
2022/08/17 02:27:09;;;;;;;50.55;27.60;;;17.80;99.90;;;;;;5010030;28;20540;-86
2022/08/17 02:29:36;;;;;;;28.90;26.00;;;17.80;99.90;;;;;;5008395;28;20124;-86
2022/08/17 02:32:03;;;;;;;34.97;27.88;;;17.70;99.90;;;;;;5007013;28;20045;-85
2022/08/17 02:34:30;;;;;;;89.25;29.60;;;17.90;99.90;;;;;;5003160;28;20656;-86
2022/08/17 02:36:55;;;;;;;566.97;53.47;;;17.80;99.90;;;;;;4994152;28;20048;-86
2022/08/17 02:39:21;;;;;;;74.57;30.50;;;17.90;99.90;;;;;;4991761;28;20122;-84
2022/08/17 02:41:47;;;;;;;124.65;35.97;;;17.90;99.90;;;;;;5003333;28;20049;-86
2022/08/17 02:44:13;;;;;;;64.80;31.90;;;18.00;99.90;;;;;;5037977;28;20497;-85
2022/08/17 02:46:38;;;;;;;37.83;30.15;;;18.00;99.90;;;;;;4992580;28;20041;-84
2022/08/17 02:49:04;;;;;;;187.88;38.83;;;18.00;99.90;;;;;;5012061;28;20292;-85
2022/08/17 02:51:31;;;;;;;65.18;33.78;;;18.00;99.90;;;;;;4986410;28;20591;-85
2022/08/17 02:53:56;;;;;;;96.18;35.13;;;18.10;99.90;;;;;;5003548;28;20044;-86
2022/08/17 02:56:22;;;;;;;546.95;60.42;;;18.10;99.90;;;;;;5023484;28;20481;-83
2022/08/17 02:58:48;;;;;;;66.50;34.50;;;18.00;99.90;;;;;;4994247;28;20199;-86
2022/08/17 03:01:14;;;;;;;53.38;33.45;;;18.10;99.90;;;;;;5042596;28;20033;-86
2022/08/17 03:03:39;;;;;;;177.60;38.28;;;18.10;99.90;;;;;;5039547;28;20417;-86
2022/08/17 03:06:06;;;;;;;197.68;39.85;;;18.10;99.90;;;;;;5009025;28;20073;-85
2022/08/17 03:08:32;;;;;;;125.00;37.47;;;18.10;99.90;;;;;;5029523;28;20049;-85
2022/08/17 03:10:58;;;;;;;301.73;45.50;;;18.00;99.90;;;;;;4988874;28;20040;-86
2022/08/17 03:13:26;;;;;;;354.95;48.33;;;18.00;99.90;;;;;;4985995;28;20038;-85
2022/08/17 03:15:51;;;;;;;106.35;39.50;;;18.00;99.90;;;;;;5033969;28;20336;-85
2022/08/17 03:18:19;;;;;;;94.05;37.95;;;17.90;99.90;;;;;;5022747;28;20034;-86
2022/08/17 03:20:45;;;;;;;45.58;34.40;;;18.00;99.90;;;;;;5028870;28;20046;-86
2022/08/17 03:23:11;;;;;;;79.28;35.25;;;18.00;99.90;;;;;;5007814;28;20037;-85
2022/08/17 03:25:42;;;;;;;125.38;38.50;;;18.10;99.90;;;;;;5025980;28;20045;-86
2022/08/17 03:28:10;;;;;;;100.45;39.47;;;18.00;99.90;;;;;;5003408;28;20175;-86
2022/08/17 03:30:36;;;;;;;126.57;39.97;;;18.20;99.90;;;;;;5025702;28;20034;-86
2022/08/17 03:33:05;;;;;;;201.20;48.45;;;18.20;99.90;;;;;;5031775;28;20041;-86
2022/08/17 03:35:33;;;;;;;273.40;46.95;;;18.20;99.90;;;;;;5006209;28;20199;-86
2022/08/17 03:38:00;;;;;;;76.57;41.67;;;18.40;99.90;;;;;;5001646;28;20037;-85
2022/08/17 03:40:26;;;;;;;139.02;43.38;;;18.40;99.90;;;;;;5010523;28;20060;-86
2022/08/17 03:42:53;;;;;;;378.02;50.80;;;18.40;99.90;;;;;;4990546;28;20486;-86
2022/08/17 03:56:41;;;;;;;184.43;42.80;;;18.50;99.90;;;;;;5030569;28;20042;-84
2022/08/17 03:56:41;;;;;;;289.27;47.58;;;18.50;99.90;;;;;;5004715;28;20138;-86
2022/08/17 03:59:09;;;;;;;449.38;56.85;;;18.60;99.90;;;;;;5020992;28;20033;-86
2022/08/17 04:01:34;;;;;;;126.30;41.75;;;18.60;99.90;;;;;;5029877;28;20509;-85
2022/08/17 04:04:00;;;;;;;112.00;42.63;;;18.50;99.90;;;;;;5035400;28;20065;-84
2022/08/17 04:06:26;;;;;;;163.68;44.83;;;18.50;99.90;;;;;;5017403;28;20049;-85
2022/08/17 04:08:51;;;;;;;297.58;50.08;;;18.60;99.90;;;;;;4985746;28;20209;-86
2022/08/17 04:11:17;;;;;;;182.70;42.50;;;18.60;99.90;;;;;;5003166;28;20124;-86
2022/08/17 04:13:42;;;;;;;141.77;39.78;;;18.50;99.90;;;;;;5021131;28;20169;-86
2022/08/17 04:16:08;;;;;;;76.70;36.10;;;18.40;99.90;;;;;;5001994;28;20083;-85
2022/08/17 04:18:34;;;;;;;111.70;40.30;;;18.50;99.90;;;;;;5026213;28;20041;-86
2022/08/17 04:20:59;;;;;;;58.00;35.33;;;18.40;99.90;;;;;;5006145;28;20038;-86
2022/08/17 04:23:31;;;;;;;48.55;35.47;;;18.40;99.90;;;;;;4987772;28;20045;-85
2022/08/17 04:25:57;;;;;;;60.42;36.72;;;18.40;99.90;;;;;;5013057;28;20433;-86
2022/08/17 04:28:22;;;;;;;48.15;37.50;;;18.40;99.90;;;;;;5005053;28;20064;-86
2022/08/17 04:30:48;;;;;;;40.72;34.95;;;18.40;99.90;;;;;;5007829;28;20166;-86
2022/08/17 04:33:20;;;;;;;41.83;36.08;;;18.40;99.90;;;;;;5037347;28;20073;-85
2022/08/17 04:35:56;;;;;;;47.55;36.53;;;18.50;99.90;;;;;;5003240;28;20045;-85
2022/08/17 04:38:25;;;;;;;42.38;34.83;;;18.40;99.90;;;;;;5003863;28;20042;-86
2022/08/17 04:43:38;;;;;;;35.13;31.38;;;18.50;99.90;;;;;;5030079;28;20479;-86
2022/08/17 04:46:07;;;;;;;40.85;34.60;;;18.40;99.90;;;;;;5006146;28;20409;-86
2022/08/17 04:48:36;;;;;;;50.50;37.67;;;18.40;99.90;;;;;;5031713;28;20049;-86
2022/08/17 04:51:04;;;;;;;36.33;31.10;;;18.40;99.90;;;;;;5012937;28;20067;-87
2022/08/17 04:53:30;;;;;;;38.40;33.40;;;18.40;99.90;;;;;;5028178;28;20081;-86
2022/08/17 04:55:57;;;;;;;37.80;33.22;;;18.50;99.90;;;;;;4994443;28;20559;-86
2022/08/17 04:58:24;;;;;;;35.05;31.13;;;18.50;99.90;;;;;;4993865;28;20507;-85
2022/08/17 05:00:49;;;;;;;38.80;32.80;;;18.50;99.90;;;;;;4985155;28;20484;-86
2022/08/17 05:03:15;;;;;;;40.03;32.60;;;18.50;99.90;;;;;;5013298;28;20529;-86
2022/08/17 05:05:48;;;;;;;49.08;38.42;;;18.60;99.90;;;;;;5012307;28;20038;-86
2022/08/17 05:08:16;;;;;;;43.30;34.95;;;18.60;99.90;;;;;;5038712;28;20045;-85
2022/08/17 05:10:42;;;;;;;39.78;33.58;;;18.60;99.90;;;;;;5006603;28;20345;-86
2022/08/17 05:13:20;;;;;;;38.00;31.88;;;18.60;99.90;;;;;;4991992;28;20128;-85
2022/08/17 05:15:47;;;;;;;42.38;33.85;;;18.70;99.90;;;;;;5028137;28;20589;-86
2022/08/17 05:18:13;;;;;;;49.63;36.72;;;18.60;99.90;;;;;;5016671;28;20085;-85
2022/08/17 05:20:40;;;;;;;59.80;39.80;;;18.60;99.90;;;;;;5030669;28;20045;-86
2022/08/17 05:23:09;;;;;;;79.63;40.95;;;18.50;99.90;;;;;;5025983;28;20036;-86
2022/08/17 05:25:39;;;;;;;87.03;42.25;;;18.50;99.90;;;;;;4994533;28;20036;-86
2022/08/17 05:28:05;;;;;;;97.07;44.20;;;18.50;99.90;;;;;;5010776;28;20461;-85
2022/08/17 05:30:31;;;;;;;62.40;40.08;;;18.50;99.90;;;;;;5013201;28;20141;-86
2022/08/17 05:33:03;;;;;;;61.22;41.67;;;18.60;99.90;;;;;;4990878;28;20556;-86
2022/08/17 05:35:31;;;;;;;53.83;40.60;;;18.70;99.90;;;;;;5027320;28;20026;-86
2022/08/17 05:37:58;;;;;;;53.63;38.63;;;18.80;99.90;;;;;;5006297;28;20033;-86
2022/08/17 05:40:24;;;;;;;70.93;42.75;;;18.90;99.90;;;;;;5028287;28;20034;-85
2022/08/17 05:43:02;;;;;;;67.35;42.35;;;18.80;99.90;;;;;;5035037;28;20046;-86
2022/08/17 05:45:28;;;;;;;52.15;39.78;;;18.80;99.90;;;;;;5007832;28;20108;-86
2022/08/17 05:47:54;;;;;;;56.35;41.58;;;19.00;99.90;;;;;;5024425;28;20064;-87
2022/08/17 05:50:27;;;;;;;56.05;42.03;;;19.10;99.90;;;;;;5031893;28;20049;-86
2022/08/17 05:53:14;;;;;;;71.35;46.47;;;19.20;99.90;;;;;;4993724;28;20107;-86
2022/08/17 05:56:07;;;;;;;55.83;41.10;;;19.20;99.90;;;;;;5010867;28;20333;-86
2022/08/17 05:58:53;;;;;;;73.35;47.28;;;19.20;99.90;;;;;;5013001;28;20099;-85
2022/08/17 06:01:52;;;;;;;64.65;44.45;;;19.30;99.90;;;;;;5006451;28;20046;-86
2022/08/17 06:04:24;;;;;;;61.83;44.05;;;19.30;99.90;;;;;;4990112;28;20060;-86
2022/08/17 06:06:56;;;;;;;70.93;47.50;;;19.40;99.90;;;;;;5007926;28;20049;-85
2022/08/17 06:09:38;;;;;;;84.25;49.88;;;19.30;99.90;;;;;;4986611;28;20045;-86
2022/08/17 06:12:13;;;;;;;77.00;47.90;;;19.40;99.90;;;;;;4989711;28;20034;-86
2022/08/17 06:14:54;;;;;;;72.90;46.78;;;19.40;99.90;;;;;;5036544;28;20460;-87
2022/08/17 06:17:22;;;;;;;73.82;47.15;;;19.40;99.90;;;;;;5020742;28;20069;-86
2022/08/17 06:20:12;;;;;;;80.35;49.08;;;19.30;99.90;;;;;;5008296;28;20485;-87
2022/08/17 06:22:45;;;;;;;63.22;44.15;;;19.30;99.90;;;;;;5003332;28;20096;-86
2022/08/17 06:25:28;;;;;;;58.25;42.30;;;19.50;99.90;;;;;;5032328;28;20064;-87
2022/08/17 06:28:02;;;;;;;63.33;43.65;;;19.60;99.90;;;;;;5015875;28;20046;-86
2022/08/17 06:30:33;;;;;;;64.13;42.50;;;19.60;99.90;;;;;;4998518;28;20049;-85
2022/08/17 06:33:06;;;;;;;64.00;43.17;;;19.60;99.90;;;;;;5011754;28;20080;-86
2022/08/17 06:35:43;;;;;;;77.05;45.15;;;19.60;99.90;;;;;;4986992;28;20111;-86
2022/08/17 06:38:21;;;;;;;67.90;43.88;;;19.70;99.90;;;;;;5003045;28;20046;-85
2022/08/17 06:40:50;;;;;;;79.05;46.03;;;19.70;99.90;;;;;;5038308;28;20039;-87
2022/08/17 06:43:34;;;;;;;84.95;48.67;;;19.70;99.90;;;;;;5015716;28;20430;-85
2022/08/17 06:46:04;;;;;;;80.28;46.70;;;19.70;99.90;;;;;;5022636;28;20045;-86
2022/08/17 06:48:59;;;;;;;73.60;46.38;;;19.80;99.90;;;;;;5004396;28;20163;-85
2022/08/17 06:51:38;;;;;;;65.78;43.47;;;19.80;99.90;;;;;;5034463;28;20042;-85
2022/08/17 06:54:25;;;;;;;68.38;46.00;;;20.00;99.90;;;;;;5005224;28;20042;-85
2022/08/17 06:57:01;;;;;;;83.32;49.53;;;19.80;99.90;;;;;;5002738;28;20042;-85
2022/08/17 06:59:54;;;;;;;90.20;51.20;;;19.80;99.90;;;;;;5016247;28;20299;-85
2022/08/17 07:02:35;;;;;;;96.28;53.05;;;19.90;99.90;;;;;;5013592;28;20903;-84
2022/08/17 07:05:01;;;;;;;107.15;55.95;;;19.70;99.90;;;;;;5021190;28;20291;-84
2022/08/17 07:10:13;;;;;;;103.30;55.28;;;20.00;99.90;;;;;;5003326;28;20049;-85
2022/08/17 07:12:43;;;;;;;95.30;54.60;;;20.00;99.90;;;;;;4993323;28;20047;-85
2022/08/17 07:15:32;;;;;;;98.88;56.78;;;20.10;99.90;;;;;;5018502;28;20045;-84
2022/08/17 07:17:59;;;;;;;86.97;53.30;;;20.20;99.90;;;;;;5036330;28;20077;-85
2022/08/17 07:20:25;;;;;;;97.28;56.50;;;20.10;99.90;;;;;;5008789;28;20035;-86
2022/08/17 07:23:05;;;;;;;101.43;58.40;;;20.10;99.90;;;;;;5043645;28;20440;-84
2022/08/17 07:25:31;;;;;;;89.63;53.75;;;20.20;99.90;;;;;;5027445;28;20440;-85
2022/08/17 07:27:59;;;;;;;94.18;55.97;;;20.10;99.90;;;;;;4991516;28;20121;-86
2022/08/17 07:30:32;;;;;;;78.68;51.85;;;20.40;99.90;;;;;;4986768;28;20068;-85
2022/08/17 07:33:26;;;;;;;83.10;53.22;;;20.50;99.90;;;;;;5009063;28;20068;-86
2022/08/17 07:35:53;;;;;;;85.13;53.97;;;20.60;99.90;;;;;;4995290;28;20049;-85
2022/08/17 07:38:34;;;;;;;73.25;50.40;;;20.80;99.90;;;;;;5017673;28;20527;-85
2022/08/17 07:41:09;;;;;;;74.25;51.70;;;20.60;99.90;;;;;;4991935;28;20377;-85
2022/08/17 07:43:41;;;;;;;78.28;50.22;;;20.80;99.90;;;;;;5023499;28;20026;-84
2022/08/17 07:49:08;;;;;;;70.82;46.78;;;20.70;99.90;;;;;;5026835;28;20042;-85
2022/08/17 07:51:44;;;;;;;68.10;47.00;;;20.80;99.90;;;;;;4973243;28;20486;-85
2022/08/17 07:54:18;;;;;;;66.72;47.13;;;20.60;99.90;;;;;;4983501;28;20092;-86
2022/08/17 07:56:59;;;;;;;66.60;48.72;;;20.70;99.90;;;;;;4995721;28;20147;-86
2022/08/17 07:59:29;;;;;;;57.85;43.53;;;20.70;99.90;;;;;;5006276;28;20505;-86
2022/08/17 08:01:59;;;;;;;58.92;46.05;;;20.90;1.00;;;;;;5038694;28;20058;-86
2022/08/17 08:04:45;;;;;;;56.20;43.55;;;20.90;93.90;;;;;;5007313;28;20045;-85
2022/08/17 08:07:23;;;;;;;57.03;46.05;;;21.00;1.00;;;;;;5021576;28;20326;-85
2022/08/17 08:09:58;;;;;;;59.22;44.80;;;21.00;1.00;;;;;;5043049;28;20045;-84
2022/08/17 08:12:32;;;;;;;55.35;44.60;;;21.10;99.90;;;;;;5039088;28;20045;-86
2022/08/17 08:15:02;;;;;;;53.38;44.42;;;21.30;99.90;;;;;;5011180;28;20325;-86
2022/08/17 08:17:36;;;;;;;55.35;46.08;;;21.40;1.00;;;;;;5048681;28;20425;-84
2022/08/17 08:20:07;;;;;;;49.55;41.53;;;21.70;1.00;;;;;;4994640;28;20374;-85
2022/08/17 08:23:08;;;;;;;50.95;42.05;;;21.60;95.20;;;;;;5031495;28;20367;-85
2022/08/17 08:25:55;;;;;;;46.80;40.30;;;21.70;6.40;;;;;;5009316;28;20077;-86
2022/08/17 08:28:42;;;;;;;52.70;43.13;;;22.00;99.90;;;;;;4993441;28;20040;-86
2022/08/17 08:31:23;;;;;;;46.92;39.95;;;21.80;99.90;;;;;;5029163;28;20030;-85
2022/08/17 08:33:59;;;;;;;46.60;39.92;;;21.80;99.90;;;;;;5002511;28;20511;-86
2022/08/17 08:36:49;;;;;;;45.80;40.75;;;21.70;99.90;;;;;;5034021;28;20284;-85
2022/08/17 08:39:34;;;;;;;49.65;41.33;;;21.70;99.90;;;;;;5039397;28;20037;-85
2022/08/17 08:42:19;;;;;;;45.15;39.40;;;21.80;99.90;;;;;;5007894;28;20103;-86
2022/08/17 08:45:10;;;;;;;49.50;42.40;;;21.90;99.90;;;;;;4989844;28;20046;-86
2022/08/17 08:47:56;;;;;;;52.17;44.05;;;21.80;99.90;;;;;;5037217;28;20133;-85
2022/08/17 08:50:41;;;;;;;52.22;41.10;;;22.00;99.90;;;;;;5028326;28;20045;-86
2022/08/17 08:53:13;;;;;;;46.88;37.28;;;22.10;1.00;;;;;;4995554;28;20397;-85
2022/08/17 08:56:01;;;;;;;48.15;38.65;;;22.30;1.00;;;;;;5028695;28;20050;-86
2022/08/17 08:58:58;;;;;;;48.95;39.70;;;22.00;60.00;;;;;;5034159;28;20042;-87
2022/08/17 09:01:38;;;;;;;43.33;37.28;;;22.40;1.00;;;;;;5039012;28;20132;-87
2022/08/17 09:04:31;;;;;;;47.28;39.20;;;22.20;99.90;;;;;;5049856;28;20124;-85
2022/08/17 09:07:08;;;;;;;47.33;39.40;;;22.00;99.90;;;;;;4986448;28;20049;-85
2022/08/17 09:10:09;;;;;;;49.05;39.67;;;22.10;84.60;;;;;;5026812;28;20041;-85
2022/08/17 09:12:42;;;;;;;50.13;41.78;;;22.20;1.00;;;;;;4999935;28;20087;-85
2022/08/17 09:15:20;;;;;;;48.40;40.00;;;22.30;93.70;;;;;;5004124;28;20038;-86
2022/08/17 09:17:50;;;;;;;45.42;38.70;;;22.30;1.00;;;;;;5001862;28;20049;-85
2022/08/17 09:20:39;;;;;;;42.67;35.90;;;22.50;1.00;;;;;;5020655;28;20041;-86
2022/08/17 09:23:12;;;;;;;41.00;35.35;;;22.00;99.90;;;;;;5015863;28;20061;-85
2022/08/17 09:26:02;;;;;;;44.28;38.83;;;22.20;99.90;;;;;;5014186;28;20278;-87
2022/08/17 09:28:33;;;;;;;41.47;36.72;;;22.40;99.90;;;;;;5030677;28;20117;-86
2022/08/17 09:31:08;;;;;;;44.47;37.17;;;22.30;99.90;;;;;;4992757;28;20397;-86
2022/08/17 09:33:42;;;;;;;42.58;37.03;;;22.20;99.90;;;;;;5026216;28;20038;-86
2022/08/17 09:36:41;;;;;;;43.35;37.67;;;22.50;99.90;;;;;;5039260;28;20439;-86
2022/08/17 09:39:31;;;;;;;46.45;40.03;;;22.70;99.90;;;;;;4967765;28;20160;-86
2022/08/17 09:42:07;;;;;;;50.50;39.90;;;22.60;99.90;;;;;;5017579;28;20045;-86
2022/08/17 09:44:50;;;;;;;47.25;39.05;;;22.50;1.00;;;;;;5008192;28;20041;-86
2022/08/17 09:47:31;;;;;;;47.70;39.35;;;22.90;99.90;;;;;;5024334;28;20592;-85
2022/08/17 09:50:10;;;;;;;47.63;39.65;;;23.10;99.90;;;;;;5003193;28;20117;-86
2022/08/17 09:52:36;;;;;;;47.17;39.42;;;23.10;99.90;;;;;;5019944;28;20504;-85
2022/08/17 09:55:05;;;;;;;46.75;38.40;;;23.00;99.90;;;;;;5007548;28;20176;-87
2022/08/17 09:57:55;;;;;;;44.35;37.65;;;23.00;99.90;;;;;;5037962;28;20045;-86
2022/08/17 10:00:33;;;;;;;40.67;35.63;;;22.90;99.50;;;;;;5039512;28;20466;-86
2022/08/17 10:03:18;;;;;;;43.40;37.03;;;23.00;99.90;;;;;;5010054;28;20073;-85
2022/08/17 10:05:50;;;;;;;;;;;22.80;99.90;;;;;;5009702;28;20136;-85
2022/08/17 10:08:28;;;;;;;46.05;39.63;;;22.50;99.90;;;;;;5005703;28;19925;-86
2022/08/17 10:11:04;;;;;;;47.22;39.47;;;22.10;99.90;;;;;;5011175;28;20029;-86
2022/08/17 10:13:48;;;;;;;48.63;40.58;;;22.30;1.00;;;;;;5045523;28;20037;-83
2022/08/17 10:16:37;;;;;;;49.67;38.60;;;22.10;4.50;;;;;;5039400;28;20512;-85
2022/08/17 10:19:29;;;;;;;48.70;39.00;;;22.40;78.00;;;;;;5043236;28;20042;-86
2022/08/17 10:27:47;;;;;;;48.58;41.53;;;22.90;1.00;;;;;;5005981;28;20041;-84
2022/08/17 10:30:19;;;;;;;47.53;40.10;;;22.70;99.90;;;;;;4990513;28;20046;-86
2022/08/17 10:32:49;;;;;;;48.50;41.63;;;22.50;1.00;;;;;;5033091;28;20038;-85
2022/08/17 10:35:35;;;;;;;51.30;40.50;;;22.70;1.00;;;;;;4991153;28;20121;-85
2022/08/17 10:38:11;;;;;;;46.70;38.60;;;22.50;85.40;;;;;;5021391;28;20096;-86
2022/08/17 10:41:11;;;;;;;45.58;38.58;;;22.80;99.90;;;;;;5017167;28;20408;-87
2022/08/17 10:44:02;;;;;;;45.00;36.80;;;22.80;99.90;;;;;;4986406;28;20140;-86
2022/08/17 10:47:05;;;;;;;47.25;38.92;;;22.70;99.90;;;;;;5036933;28;20070;-86
2022/08/17 10:49:46;;;;;;;46.08;40.58;;;22.50;99.90;;;;;;5014340;28;20045;-85
2022/08/17 10:52:29;;;;;;;44.70;39.22;;;22.70;99.90;;;;;;5014820;28;20037;-85
2022/08/17 10:54:57;;;;;;;43.72;36.63;;;22.70;99.90;;;;;;5011451;28;20469;-85
2022/08/17 10:57:26;;;;;;;39.25;35.00;;;23.10;99.90;;;;;;5015719;28;20045;-87
2022/08/17 10:59:54;;;;;;;43.80;39.10;;;23.00;99.90;;;;;;5001428;28;20080;-86
2022/08/17 11:02:57;;;;;;;41.17;36.33;;;23.10;99.90;;;;;;5038831;28;20128;-85
2022/08/17 11:05:46;;;;;;;42.78;38.25;;;23.60;99.90;;;;;;5013327;28;20122;-87
2022/08/17 11:08:14;;;;;;;40.45;36.10;;;23.60;1.00;;;;;;5021669;28;20539;-86
2022/08/17 11:11:05;;;;;;;39.53;34.33;;;23.70;87.50;;;;;;5004007;28;20049;-85
2022/08/17 11:14:09;;;;;;;38.47;34.35;;;24.20;1.00;;;;;;5016521;28;20080;-85
2022/08/17 11:17:17;;;;;;;36.20;32.25;;;24.50;99.90;;;;;;5023523;28;20045;-86
2022/08/17 11:19:53;;;;;;;40.63;36.50;;;24.70;99.90;;;;;;5006692;28;20454;-85
2022/08/17 11:22:36;;;;;;;40.58;36.03;;;23.90;99.90;;;;;;5014068;28;20522;-84
2022/08/17 11:25:20;;;;;;;38.50;34.40;;;24.00;1.00;;;;;;5027372;28;20445;-86
2022/08/17 11:27:52;;;;;;;39.88;34.40;;;23.90;1.00;;;;;;5005720;28;20076;-86
2022/08/17 11:30:46;;;;;;;37.38;33.40;;;24.20;99.90;;;;;;5011966;28;20046;-86
2022/08/17 11:33:31;;;;;;;35.28;31.45;;;24.00;99.90;;;;;;5030719;28;20131;-86
2022/08/17 11:36:18;;;;;;;34.63;31.05;;;24.40;99.90;;;;;;4995521;28;20258;-86
2022/08/17 11:39:02;;;;;;;34.60;29.45;;;24.10;99.90;;;;;;5028642;28;20418;-86
2022/08/17 11:41:27;;;;;;;33.13;29.60;;;24.30;99.90;;;;;;5009200;28;20038;-85
2022/08/17 11:44:09;;;;;;;31.02;26.75;;;24.20;99.90;;;;;;4993696;28;20051;-86
2022/08/17 11:52:43;;;;;;;27.67;24.85;;;23.80;99.90;;;;;;4999781;28;20111;-84
2022/08/17 11:55:30;;;;;;;25.27;22.77;;;23.70;99.90;;;;;;4993112;28;20042;-86
2022/08/17 11:58:02;;;;;;;25.05;22.45;;;23.80;99.90;;;;;;5031131;28;20046;-86
2022/08/17 12:00:58;;;;;;;25.83;23.33;;;24.10;99.90;;;;;;4997031;28;20288;-86
2022/08/17 12:03:30;;;;;;;25.60;22.88;;;23.70;99.90;;;;;;4994054;28;20058;-87
2022/08/17 12:06:26;;;;;;;24.42;21.83;;;24.30;99.90;;;;;;5024263;28;20038;-85
2022/08/17 12:09:13;;;;;;;21.38;18.98;;;24.30;99.90;;;;;;5040656;28;20471;-85
2022/08/17 12:11:58;;;;;;;22.02;19.73;;;24.30;99.90;;;;;;5024324;28;20645;-86
2022/08/17 12:14:28;;;;;;;19.92;17.80;;;23.80;99.90;;;;;;5004794;28;20076;-86
2022/08/17 12:17:00;;;;;;;16.90;15.23;;;23.80;90.90;;;;;;5005978;28;20136;-85
2022/08/17 12:19:28;;;;;;;18.00;16.13;;;24.10;66.70;;;;;;5032202;28;20497;-86
2022/08/17 12:22:02;;;;;;;17.88;16.05;;;24.00;99.90;;;;;;5010387;28;20121;-85
2022/08/17 12:24:36;;;;;;;18.20;16.58;;;24.00;77.30;;;;;;5025301;28;20034;-85
2022/08/17 12:27:05;;;;;;;18.77;16.85;;;24.10;99.90;;;;;;4994749;28;20039;-86
2022/08/17 12:29:33;;;;;;;17.90;16.15;;;23.90;99.90;;;;;;5046045;28;20052;-85
2022/08/17 12:32:00;;;;;;;18.65;15.82;;;23.90;99.90;;;;;;5027273;28;20492;-85
2022/08/17 12:34:39;;;;;;;16.08;14.63;;;24.20;23.40;;;;;;5023754;28;20044;-85
2022/08/17 12:37:14;;;;;;;16.20;13.98;;;24.00;1.00;;;;;;5023215;28;20275;-85
2022/08/17 12:39:51;;;;;;;17.02;14.80;;;24.40;71.00;;;;;;5001782;28;20645;-85
2022/08/17 12:42:28;;;;;;;16.20;13.20;;;24.60;1.00;;;;;;4995577;28;20038;-85
2022/08/17 12:44:54;;;;;;;17.25;15.52;;;24.40;1.00;;;;;;5012233;28;20034;-85
2022/08/17 12:47:21;;;;;;;17.50;15.75;;;23.90;99.90;;;;;;5018182;28;20042;-85
2022/08/17 12:49:52;;;;;;;17.23;15.43;;;23.90;99.90;;;;;;5024536;28;20397;-86
2022/08/17 12:52:25;;;;;;;22.13;17.30;;;24.10;99.90;;;;;;5034576;28;20033;-86
2022/08/17 12:54:51;;;;;;;18.70;16.75;;;24.10;99.90;;;;;;5014905;28;20030;-86
2022/08/17 12:57:31;;;;;;;21.10;17.58;;;24.20;99.90;;;;;;5016235;28;20094;-85
2022/08/17 13:00:20;;;;;;;20.35;18.25;;;24.10;99.90;;;;;;5009617;28;20038;-86
2022/08/17 13:02:53;;;;;;;19.75;17.48;;;24.00;99.90;;;;;;5035268;28;20504;-86
2022/08/17 13:05:38;;;;;;;19.27;17.13;;;24.30;99.90;;;;;;5032608;28;20049;-85
2022/08/17 13:08:13;;;;;;;17.38;15.73;;;24.50;68.00;;;;;;5038443;28;20385;-85
2022/08/17 13:10:39;;;;;;;;;;;24.00;99.90;;;;;;4991455;28;20102;-85
2022/08/17 13:13:26;;;;;;;19.23;15.60;;;23.70;99.90;;;;;;5012971;28;19929;-85
2022/08/17 13:15:56;;;;;;;19.85;16.75;;;23.90;99.90;;;;;;4989901;28;20103;-85
2022/08/17 13:18:38;;;;;;;18.15;16.33;;;23.90;99.90;;;;;;5043323;28;20080;-85
2022/08/17 13:21:10;;;;;;;20.00;16.13;;;23.90;99.90;;;;;;5007614;28;20151;-85
2022/08/17 13:23:35;;;;;;;18.20;16.30;;;24.00;99.90;;;;;;5011700;28;20170;-86
2022/08/17 13:26:13;;;;;;;17.85;16.08;;;24.10;99.90;;;;;;4997182;28;20065;-85
2022/08/17 13:28:48;;;;;;;18.85;16.90;;;24.20;99.90;;;;;;5041840;28;20045;-84
2022/08/17 13:31:31;;;;;;;19.63;17.55;;;24.30;99.90;;;;;;5043264;28;20042;-85